地図

経路データ

SID SEASON NUMBER BASIN SUBBASIN NAME ISO_TIME NATURE LAT LON WMO_WIND WMO_PRES WMO_AGENCY TRACK_TYPE DIST2LAND LANDFALL IFLAG USA_AGENCY USA_ATCF_ID USA_LAT USA_LON USA_RECORD USA_STATUS USA_WIND USA_PRES USA_SSHS USA_R34_NE USA_R34_SE USA_R34_SW USA_R34_NW USA_R50_NE USA_R50_SE USA_R50_SW USA_R50_NW USA_R64_NE USA_R64_SE USA_R64_SW USA_R64_NW USA_POCI USA_ROCI USA_RMW USA_EYE TOKYO_LAT TOKYO_LON TOKYO_GRADE TOKYO_WIND TOKYO_PRES TOKYO_R50_DIR TOKYO_R50_LONG TOKYO_R50_SHORT TOKYO_R30_DIR TOKYO_R30_LONG TOKYO_R30_SHORT TOKYO_LAND CMA_LAT CMA_LON CMA_CAT CMA_WIND CMA_PRES HKO_LAT HKO_LON HKO_CAT HKO_WIND HKO_PRES NEWDELHI_LAT NEWDELHI_LON NEWDELHI_GRADE NEWDELHI_WIND NEWDELHI_PRES NEWDELHI_CI NEWDELHI_DP NEWDELHI_POCI REUNION_LAT REUNION_LON REUNION_TYPE REUNION_WIND REUNION_PRES REUNION_TNUM REUNION_CI REUNION_RMW REUNION_R34_NE REUNION_R34_SE REUNION_R34_SW REUNION_R34_NW REUNION_R50_NE REUNION_R50_SE REUNION_R50_SW REUNION_R50_NW REUNION_R64_NE REUNION_R64_SE REUNION_R64_SW REUNION_R64_NW BOM_LAT BOM_LON BOM_TYPE BOM_WIND BOM_PRES BOM_TNUM BOM_CI BOM_RMW BOM_R34_NE BOM_R34_SE BOM_R34_SW BOM_R34_NW BOM_R50_NE BOM_R50_SE BOM_R50_SW BOM_R50_NW BOM_R64_NE BOM_R64_SE BOM_R64_SW BOM_R64_NW BOM_ROCI BOM_POCI BOM_EYE BOM_POS_METHOD BOM_PRES_METHOD NADI_LAT NADI_LON NADI_CAT NADI_WIND NADI_PRES WELLINGTON_LAT WELLINGTON_LON WELLINGTON_WIND WELLINGTON_PRES DS824_LAT DS824_LON DS824_STAGE DS824_WIND DS824_PRES TD9636_LAT TD9636_LON TD9636_STAGE TD9636_WIND TD9636_PRES TD9635_LAT TD9635_LON TD9635_WIND TD9635_PRES TD9635_ROCI NEUMANN_LAT NEUMANN_LON NEUMANN_CLASS NEUMANN_WIND NEUMANN_PRES MLC_LAT MLC_LON MLC_CLASS MLC_WIND MLC_PRES USA_GUST BOM_GUST BOM_GUST_PER REUNION_GUST REUNION_GUST_PER USA_SEAHGT USA_SEARAD_NE USA_SEARAD_SE USA_SEARAD_SW USA_SEARAD_NW STORM_SPEED STORM_DIR
1997181N14250 1997 45 EP MM NOT_NAMED 1997-06-29 12:00:00 TS 13.6000 -109.800 25 hurdat_epa main 822 812 O_____________ hurdat_epa EP051997 13.6000 -109.800 TD 25 -1 7 323
1997181N14250 1997 45 EP MM NOT_NAMED 1997-06-29 15:00:00 TS 13.8575 -110.002 main 811 810 P_____________ EP051997 13.8575 -110.002 TD 27 -1 6 322
1997181N14250 1997 45 EP MM NOT_NAMED 1997-06-29 18:00:00 TS 14.1000 -110.200 30 hurdat_epa main 810 802 O_____________ hurdat_epa EP051997 14.1000 -110.200 TD 30 -1 6 320
1997181N14250 1997 45 EP MM NOT_NAMED 1997-06-29 21:00:00 TS 14.3150 -110.393 main 809 801 P_____________ EP051997 14.3150 -110.393 TD 30 -1 6 316
1997181N14250 1997 45 EP MM NOT_NAMED 1997-06-30 00:00:00 TS 14.5000 -110.600 30 hurdat_epa main 809 808 O_____________ hurdat_epa EP051997 14.5000 -110.600 TD 30 -1 5 310
1997181N14250 1997 45 EP MM NOT_NAMED 1997-06-30 03:00:00 TS 14.6649 -110.828 main 808 808 P_____________ EP051997 14.6649 -110.828 TD 30 -1 6 302
1997181N14250 1997 45 EP MM NOT_NAMED 1997-06-30 06:00:00 TS 14.8000 -111.100 30 hurdat_epa main 824 824 O_____________ hurdat_epa EP051997 14.8000 -111.100 TD 30 -1 6 294
1997181N14250 1997 45 EP MM NOT_NAMED 1997-06-30 09:00:00 TS 14.9149 -111.420 main 841 841 P_____________ EP051997 14.9149 -111.420 TD 30 -1 7 286
1997181N14250 1997 45 EP MM NOT_NAMED 1997-06-30 12:00:00 TS 15.0000 -111.800 30 hurdat_epa main 867 867 O_____________ hurdat_epa EP051997 15.0000 -111.800 TD 30 -1 8 281
1997181N14250 1997 45 EP MM NOT_NAMED 1997-06-30 15:00:00 TS 15.0649 -112.228 main 894 894 P_____________ EP051997 15.0649 -112.228 TD 30 -1 9 277
1997181N14250 1997 45 EP MM NOT_NAMED 1997-06-30 18:00:00 TS 15.1000 -112.700 30 hurdat_epa main 917 917 O_____________ hurdat_epa EP051997 15.1000 -112.700 TD 30 -1 9 273
1997181N14250 1997 45 EP MM NOT_NAMED 1997-06-30 21:00:00 TS 15.1074 -113.193 main 935 935 P_____________ EP051997 15.1074 -113.193 TD 30 -1 10 270
1997181N14250 1997 45 EP MM NOT_NAMED 1997-07-01 00:00:00 TS 15.1000 -113.700 30 hurdat_epa main 955 955 O_____________ hurdat_epa EP051997 15.1000 -113.700 TD 30 -1 10 270
1997181N14250 1997 45 EP MM NOT_NAMED 1997-07-01 03:00:00 TS 15.0999 -114.200 main 977 977 P_____________ EP051997 15.0999 -114.200 TD 30 -1 10 270
1997181N14250 1997 45 EP MM NOT_NAMED 1997-07-01 06:00:00 TS 15.1000 -114.700 30 hurdat_epa main 1002 1002 O_____________ hurdat_epa EP051997 15.1000 -114.700 TD 30 -1 10 270
1997181N14250 1997 45 EP MM NOT_NAMED 1997-07-01 09:00:00 TS 15.0924 -115.208 main 1029 1029 P_____________ EP051997 15.0924 -115.208 TD 27 -1 10 270
1997181N14250 1997 45 EP MM NOT_NAMED 1997-07-01 12:00:00 TS 15.1000 -115.700 25 hurdat_epa main 1058 1058 O_____________ hurdat_epa EP051997 15.1000 -115.700 TD 25 -1 9 274
1997181N14250 1997 45 EP MM NOT_NAMED 1997-07-01 15:00:00 TS 15.1499 -116.165 main 1088 1079 P_____________ EP051997 15.1499 -116.165 TD 25 -1 9 277
1997181N14250 1997 45 EP MM NOT_NAMED 1997-07-01 18:00:00 TS 15.2000 -116.600 25 hurdat_epa main 1105 1105 O_____________ hurdat_epa EP051997 15.2000 -116.600 TD 25 -1 8 275
1997181N14250 1997 45 EP MM NOT_NAMED 1997-07-01 21:00:00 TS 15.2223 -116.992 main 1132 1132 P_____________ EP051997 15.2223 -116.992 TD 27 -1 8 270
1997181N14250 1997 45 EP MM NOT_NAMED 1997-07-02 00:00:00 TS 15.2000 -117.400 30 hurdat_epa main 1159 1159 O_____________ hurdat_epa EP051997 15.2000 -117.400 TD 30 -1 9 262
1997181N14250 1997 45 EP MM NOT_NAMED 1997-07-02 03:00:00 TS 15.1075 -117.893 main 1204 1204 P_____________ EP051997 15.1075 -117.893 TD 30 -1 10 258
1997181N14250 1997 45 EP MM NOT_NAMED 1997-07-02 06:00:00 TS 15.0000 -118.400 30 hurdat_epa main 1248 1248 O_____________ hurdat_epa EP051997 15.0000 -118.400 TD 30 -1 9 260
1997181N14250 1997 45 EP MM NOT_NAMED 1997-07-02 09:00:00 TS 14.9424 -118.857 main 1294 1294 P_____________ EP051997 14.9424 -118.857 TD 30 -1 9 263
1997181N14250 1997 45 EP MM NOT_NAMED 1997-07-02 12:00:00 TS 14.9000 -119.300 30 hurdat_epa main 1325 1325 O_____________ hurdat_epa EP051997 14.9000 -119.300 TD 30 -1 9 264
1997181N14250 1997 45 EP MM NOT_NAMED 1997-07-02 15:00:00 TS 14.8575 -119.757 main 1359 1359 P_____________ EP051997 14.8575 -119.757 TD 30 -1 9 263
1997181N14250 1997 45 EP MM NOT_NAMED 1997-07-02 18:00:00 TS 14.8000 -120.200 30 hurdat_epa main 1393 1393 O_____________ hurdat_epa EP051997 14.8000 -120.200 TD 30 -1 8 259
1997181N14250 1997 45 EP MM NOT_NAMED 1997-07-02 21:00:00 TS 14.6999 -120.615 main 1428 1428 P_____________ EP051997 14.6999 -120.615 TD 30 -1 8 256
1997181N14250 1997 45 EP MM NOT_NAMED 1997-07-03 00:00:00 TS 14.6000 -121.000 30 hurdat_epa main 1463 1463 O_____________ hurdat_epa EP051997 14.6000 -121.000 TD 30 -1 7 258
1997181N14250 1997 45 EP MM NOT_NAMED 1997-07-03 03:00:00 TS 14.5424 -121.350 main 1492 1492 P_____________ EP051997 14.5424 -121.350 TD 30 -1 7 262
1997181N14250 1997 45 EP MM NOT_NAMED 1997-07-03 06:00:00 TS 14.5000 -121.700 30 hurdat_epa main 1519 1519 O_____________ hurdat_epa EP051997 14.5000 -121.700 TD 30 -1 7 263
1997181N14250 1997 45 EP MM NOT_NAMED 1997-07-03 09:00:00 TS 14.4575 -122.107 main 1547 1547 P_____________ EP051997 14.4575 -122.107 TD 30 -1 8 263
1997181N14250 1997 45 EP MM NOT_NAMED 1997-07-03 12:00:00 TS 14.4000 -122.500 30 hurdat_epa main 1584 1584 O_____________ hurdat_epa EP051997 14.4000 -122.500 TD 30 -1 7 257
1997181N14250 1997 45 EP MM NOT_NAMED 1997-07-03 15:00:00 TS 14.2999 -122.815 main 1614 1614 P_____________ EP051997 14.2999 -122.815 TD 27 -1 6 251
1997181N14250 1997 45 EP MM NOT_NAMED 1997-07-03 18:00:00 TS 14.2000 -123.100 25 hurdat_epa main 1644 1644 O_____________ hurdat_epa EP051997 14.2000 -123.100 TD 25 -1 6 254
1997181N14250 1997 45 EP MM NOT_NAMED 1997-07-03 21:00:00 TS 14.1376 -123.395 main 1674 1674 P_____________ EP051997 14.1376 -123.395 TD 22 -1 6 260
1997181N14250 1997 45 EP MM NOT_NAMED 1997-07-04 00:00:00 TS 14.1000 -123.700 20 hurdat_epa main 1696 O_____________ hurdat_epa EP051997 14.1000 -123.700 TD 20 -1 6 263

IBTrACS Databaseについて

本データベースは、米国NOAAが公開する1842年以降の世界の熱帯低気圧のベストトラックデータアーカイブInternational Best Track Archive for Climate Stewardship (IBTrACS)を、ウェブで閲覧しやすい形式に変換したものです。

最終更新日:2021-11-26